Time;durP1;ratioP1;P1;durP2;ratioP2;P2;SDS_P1;SDS_P2;PMS_P1;PMS_P2;Temp;Humidity;BMP_temperature;BMP_pressure;BME280_temperature;BME280_humidity;BME280_pressure;Samples;Min_cycle;Max_cycle;Signal;HPM_P1;HPM_P2
2023/08/28 00:01:56;;;;;;;2.47;1.30;;;12.60;99.90;;;;;;5075344;28;20041;-86
2023/08/28 00:04:23;;;;;;;3.85;1.48;;;12.60;99.90;;;;;;5075573;28;20082;-85
2023/08/28 00:06:51;;;;;;;4.65;1.52;;;12.70;99.90;;;;;;5059214;28;20057;-86
2023/08/28 00:09:18;;;;;;;4.13;1.35;;;12.60;99.90;;;;;;5091614;28;20040;-85
2023/08/28 00:11:45;;;;;;;4.47;1.38;;;12.60;99.90;;;;;;5058597;28;20489;-86
2023/08/28 00:14:12;;;;;;;4.78;1.40;;;12.60;99.90;;;;;;5091764;28;20114;-86
2023/08/28 00:16:38;;;;;;;4.53;1.52;;;12.70;99.90;;;;;;5058434;28;20040;-86
2023/08/28 00:19:05;;;;;;;3.42;1.50;;;12.70;99.90;;;;;;5058814;28;20554;-86
2023/08/28 00:21:32;;;;;;;4.65;1.55;;;12.70;99.90;;;;;;5058703;28;20507;-86
2023/08/28 00:23:59;;;;;;;5.90;1.70;;;12.70;99.90;;;;;;5058692;28;20477;-86
2023/08/28 00:26:26;;;;;;;3.20;1.50;;;12.70;99.90;;;;;;5091805;28;20041;-86
2023/08/28 00:28:52;;;;;;;8.00;1.60;;;12.70;99.90;;;;;;5058376;28;20041;-86
2023/08/28 00:31:19;;;;;;;5.70;1.67;;;12.70;99.90;;;;;;5058181;28;20048;-86
2023/08/28 00:33:46;;;;;;;4.45;1.52;;;12.70;99.90;;;;;;5074683;28;20048;-85
2023/08/28 00:36:13;;;;;;;4.65;1.63;;;12.70;99.90;;;;;;5058304;28;20045;-86
2023/08/28 00:38:39;;;;;;;3.47;1.40;;;12.70;99.90;;;;;;5057680;28;20036;-86
2023/08/28 00:41:06;;;;;;;4.95;1.63;;;12.70;99.90;;;;;;5058649;28;20089;-85
2023/08/28 00:43:33;;;;;;;3.00;1.20;;;12.70;99.90;;;;;;5058065;28;20396;-85
2023/08/28 00:46:02;;;;;;;6.65;1.80;;;12.70;99.90;;;;;;5091582;28;20082;-86
2023/08/28 00:48:29;;;;;;;6.00;1.60;;;12.70;99.90;;;;;;5074826;28;20597;-86
2023/08/28 00:50:57;;;;;;;5.00;1.42;;;12.70;99.90;;;;;;5091278;28;20043;-86
2023/08/28 00:53:24;;;;;;;6.68;1.60;;;12.70;99.90;;;;;;5074426;28;20400;-86
2023/08/28 00:55:50;;;;;;;5.38;1.50;;;12.70;99.90;;;;;;5057541;28;20055;-86
2023/08/28 00:58:17;;;;;;;5.07;1.40;;;12.70;99.90;;;;;;5074327;28;20123;-86
2023/08/28 01:00:44;;;;;;;7.60;1.80;;;12.60;99.90;;;;;;5074222;28;20180;-86
2023/08/28 01:03:11;;;;;;;5.68;1.60;;;12.60;99.90;;;;;;5074591;28;20076;-86
2023/08/28 01:06:15;;;;;;;6.10;1.52;;;12.60;99.90;;;;;;5057456;28;20060;-85
2023/08/28 01:09:15;;;;;;;8.73;1.92;;;12.60;99.90;;;;;;5090315;28;20040;-86
2023/08/28 01:11:56;;;;;;;9.43;1.70;;;12.50;99.90;;;;;;5090644;28;20123;-86
2023/08/28 01:14:26;;;;;;;9.85;1.65;;;12.50;99.90;;;;;;5091004;28;20033;-86
2023/08/28 01:17:00;;;;;;;4.38;1.30;;;12.50;99.90;;;;;;5074010;28;20052;-86
2023/08/28 01:19:40;;;;;;;6.82;1.63;;;12.50;99.90;;;;;;5091079;28;20668;-86
2023/08/28 01:22:32;;;;;;;5.68;1.48;;;12.50;99.90;;;;;;5090997;28;20032;-86
2023/08/28 01:25:10;;;;;;;5.78;1.45;;;12.50;99.90;;;;;;5107442;28;20040;-86
2023/08/28 01:27:38;;;;;;;3.55;1.40;;;12.50;99.90;;;;;;5090654;28;20086;-85
2023/08/28 01:30:13;;;;;;;4.68;1.50;;;12.50;99.90;;;;;;5090186;28;20037;-86
2023/08/28 01:32:41;;;;;;;5.60;1.45;;;12.50;99.90;;;;;;5090309;28;20048;-86
2023/08/28 01:35:17;;;;;;;3.38;1.30;;;12.50;99.90;;;;;;5074479;28;20103;-86
2023/08/28 01:38:05;;;;;;;4.40;1.40;;;12.50;99.90;;;;;;5090573;28;20076;-86
2023/08/28 01:41:05;;;;;;;6.65;1.33;;;12.50;99.90;;;;;;5090633;28;20036;-86
2023/08/28 01:43:38;;;;;;;4.28;1.42;;;12.40;99.90;;;;;;5090605;28;20086;-86
2023/08/28 01:46:05;;;;;;;5.07;1.55;;;12.40;99.90;;;;;;5074100;28;20044;-86
2023/08/28 01:48:35;;;;;;;4.45;1.48;;;12.40;99.90;;;;;;5057102;28;20051;-87
2023/08/28 01:51:02;;;;;;;3.20;1.65;;;12.40;99.90;;;;;;5090322;28;20041;-86
2023/08/28 01:53:29;;;;;;;3.47;1.27;;;12.40;99.90;;;;;;5090592;28;20378;-86
2023/08/28 01:56:08;;;;;;;3.50;1.50;;;12.40;99.90;;;;;;5057018;28;20052;-86
2023/08/28 01:58:56;;;;;;;3.22;1.30;;;12.30;99.90;;;;;;5090293;28;20041;-86
2023/08/28 02:01:24;;;;;;;2.83;1.17;;;12.30;99.90;;;;;;5090377;28;20048;-86
2023/08/28 02:03:52;;;;;;;3.33;1.33;;;12.30;99.90;;;;;;5057173;28;20082;-86
2023/08/28 02:06:18;;;;;;;4.15;1.40;;;12.20;99.90;;;;;;5089784;28;20069;-86
2023/08/28 02:08:46;;;;;;;3.00;1.10;;;12.20;99.90;;;;;;5073465;28;20044;-86
2023/08/28 02:11:13;;;;;;;3.63;1.30;;;12.20;99.90;;;;;;5073602;28;20041;-86
2023/08/28 02:13:39;;;;;;;4.63;1.30;;;12.10;99.90;;;;;;5073601;28;20094;-86
2023/08/28 02:16:06;;;;;;;4.97;1.75;;;12.10;99.90;;;;;;5073235;28;20538;-86
2023/08/28 02:18:33;;;;;;;3.83;1.30;;;12.10;99.90;;;;;;5073750;28;20039;-86
2023/08/28 02:21:00;;;;;;;2.85;1.35;;;12.10;99.90;;;;;;5073575;28;20040;-86
2023/08/28 02:23:26;;;;;;;7.00;1.45;;;12.10;99.90;;;;;;5073128;28;20036;-87
2023/08/28 02:25:53;;;;;;;4.18;1.70;;;12.00;99.90;;;;;;5089520;28;20044;-86
2023/08/28 02:28:21;;;;;;;5.53;1.80;;;12.00;99.90;;;;;;5073502;28;20048;-86
2023/08/28 02:30:47;;;;;;;5.07;1.83;;;12.10;99.90;;;;;;5072836;28;20059;-86
2023/08/28 02:33:14;;;;;;;5.47;1.50;;;12.10;99.90;;;;;;5090006;28;20492;-86
2023/08/28 02:35:41;;;;;;;2.20;1.35;;;12.10;99.90;;;;;;5057162;28;20036;-86
2023/08/28 02:38:10;;;;;;;3.63;1.50;;;12.10;99.90;;;;;;5089511;28;20389;-86
2023/08/28 02:40:38;;;;;;;7.47;1.75;;;12.10;99.90;;;;;;5089816;28;20186;-86
2023/08/28 02:43:05;;;;;;;3.83;1.70;;;12.10;99.90;;;;;;5090087;28;20036;-86
2023/08/28 02:45:40;;;;;;;6.60;1.90;;;12.00;99.90;;;;;;5072932;28;20040;-86
2023/08/28 02:48:09;;;;;;;7.97;1.95;;;12.00;99.90;;;;;;5089896;28;20040;-86
2023/08/28 02:50:36;;;;;;;8.48;1.92;;;11.90;99.90;;;;;;5089451;28;20548;-86
2023/08/28 02:53:03;;;;;;;4.25;2.13;;;12.00;99.90;;;;;;5090122;28;20062;-86
2023/08/28 02:55:37;;;;;;;4.57;2.00;;;12.00;99.90;;;;;;5089878;28;20539;-86
2023/08/28 02:58:03;;;;;;;6.10;2.13;;;12.00;99.90;;;;;;5090051;28;20123;-86
2023/08/28 03:00:30;;;;;;;4.78;1.92;;;12.00;99.90;;;;;;5074425;28;20098;-86
2023/08/28 03:02:57;;;;;;;6.78;2.08;;;11.90;99.90;;;;;;5059903;28;20280;-85
2023/08/28 03:05:24;;;;;;;5.28;2.03;;;12.00;99.90;;;;;;5060351;28;20061;-85
2023/08/28 03:07:50;;;;;;;3.65;2.10;;;12.00;99.90;;;;;;5059756;28;20092;-85
2023/08/28 03:10:17;;;;;;;3.75;2.05;;;11.90;99.90;;;;;;5060697;28;20048;-86
2023/08/28 03:12:44;;;;;;;3.75;2.13;;;11.90;99.90;;;;;;5060312;28;20730;-86
2023/08/28 03:15:11;;;;;;;7.55;2.25;;;11.90;99.90;;;;;;5060151;28;20040;-85
2023/08/28 03:17:37;;;;;;;3.42;1.77;;;11.90;99.90;;;;;;5060256;28;20032;-86
2023/08/28 03:20:04;;;;;;;6.30;2.05;;;11.90;99.90;;;;;;5059605;28;20126;-86
2023/08/28 03:22:31;;;;;;;4.43;2.38;;;11.90;99.90;;;;;;5076906;28;20117;-86
2023/08/28 03:24:58;;;;;;;4.28;2.08;;;11.90;99.90;;;;;;5076166;28;20037;-86
2023/08/28 03:27:25;;;;;;;6.13;2.35;;;11.90;99.90;;;;;;5060025;28;20408;-86
2023/08/28 03:29:51;;;;;;;8.50;2.40;;;11.90;99.90;;;;;;5059850;28;20474;-86
2023/08/28 03:32:18;;;;;;;6.93;2.10;;;11.90;99.90;;;;;;5059766;28;20082;-86
2023/08/28 03:34:45;;;;;;;6.80;2.42;;;11.80;99.90;;;;;;5059904;28;20461;-86
2023/08/28 03:37:14;;;;;;;3.88;2.28;;;11.80;99.90;;;;;;5076087;28;20044;-86
2023/08/28 03:39:41;;;;;;;4.22;2.22;;;11.80;99.90;;;;;;5092772;28;20123;-86
2023/08/28 03:42:08;;;;;;;7.05;2.35;;;11.80;99.90;;;;;;5075849;28;20480;-86
2023/08/28 03:44:34;;;;;;;5.00;2.30;;;11.80;99.90;;;;;;5060147;28;20136;-86
2023/08/28 03:47:01;;;;;;;5.95;1.98;;;11.80;99.90;;;;;;5059832;28;20048;-85
2023/08/28 03:49:28;;;;;;;6.88;2.15;;;11.90;99.90;;;;;;5076279;28;20166;-86
2023/08/28 03:51:55;;;;;;;4.88;2.17;;;11.90;99.90;;;;;;5075887;28;20053;-86
2023/08/28 03:54:22;;;;;;;8.82;2.30;;;11.90;99.90;;;;;;5092525;28;20125;-86
2023/08/28 03:56:48;;;;;;;3.47;2.30;;;11.90;99.90;;;;;;5076165;28;20086;-86
2023/08/28 03:59:15;;;;;;;3.30;2.00;;;11.90;99.90;;;;;;5075421;28;20119;-86
2023/08/28 04:01:43;;;;;;;5.05;2.30;;;11.90;99.90;;;;;;5059295;28;20503;-86
2023/08/28 04:04:09;;;;;;;3.92;2.10;;;11.90;99.90;;;;;;5059509;28;20036;-86
2023/08/28 04:06:36;;;;;;;7.03;2.15;;;11.90;99.90;;;;;;5092132;28;20059;-86
2023/08/28 04:09:03;;;;;;;5.25;2.40;;;11.90;99.90;;;;;;5059145;28;20394;-86
2023/08/28 04:11:30;;;;;;;6.80;2.53;;;11.80;99.90;;;;;;5074871;28;20075;-86
2023/08/28 04:13:58;;;;;;;5.68;2.60;;;11.80;99.90;;;;;;5059360;28;20404;-86
2023/08/28 04:16:25;;;;;;;4.15;2.38;;;11.80;99.90;;;;;;5059093;28;20051;-86
2023/08/28 04:18:51;;;;;;;6.10;2.55;;;11.80;99.90;;;;;;5075865;28;20041;-86
2023/08/28 04:21:18;;;;;;;3.97;2.15;;;11.80;99.90;;;;;;5074952;28;20098;-86
2023/08/28 04:23:45;;;;;;;6.18;2.38;;;11.80;99.90;;;;;;5059008;28;20043;-86
2023/08/28 04:26:12;;;;;;;6.70;2.75;;;11.80;99.90;;;;;;5058743;28;20426;-86
2023/08/28 04:28:38;;;;;;;7.45;2.60;;;11.80;99.90;;;;;;5075451;28;20046;-86
2023/08/28 04:31:09;;;;;;;6.10;2.40;;;11.70;99.90;;;;;;5058506;28;20040;-86
2023/08/28 04:33:36;;;;;;;6.78;2.53;;;11.70;99.90;;;;;;5091696;28;20472;-86
2023/08/28 04:36:03;;;;;;;5.22;2.60;;;11.70;99.90;;;;;;5074956;28;20047;-85
2023/08/28 04:38:30;;;;;;;6.10;2.63;;;11.70;99.90;;;;;;5058501;28;20042;-86
2023/08/28 04:40:56;;;;;;;5.95;2.50;;;11.70;99.90;;;;;;5058752;28;20037;-86
2023/08/28 04:43:23;;;;;;;3.75;2.30;;;11.70;99.90;;;;;;5091135;28;20428;-86
2023/08/28 04:45:50;;;;;;;4.47;2.60;;;11.70;99.90;;;;;;5058441;28;20511;-85
2023/08/28 04:48:18;;;;;;;5.55;2.42;;;11.70;99.90;;;;;;5074907;28;20046;-86
2023/08/28 04:50:47;;;;;;;7.50;2.70;;;11.70;99.90;;;;;;5091638;28;20048;-86
2023/08/28 04:53:13;;;;;;;4.43;2.20;;;11.70;99.90;;;;;;5074839;28;20048;-86
2023/08/28 04:55:41;;;;;;;5.95;2.55;;;11.70;99.90;;;;;;5091496;28;20048;-86
2023/08/28 04:58:08;;;;;;;5.68;2.75;;;11.70;99.90;;;;;;5074334;28;20041;-86
2023/08/28 05:00:35;;;;;;;6.63;2.20;;;11.70;99.90;;;;;;5074707;28;20049;-86
2023/08/28 05:03:01;;;;;;;3.88;2.45;;;11.60;99.90;;;;;;5091445;28;20074;-86
2023/08/28 05:05:28;;;;;;;7.38;2.38;;;11.60;99.90;;;;;;5060830;28;20056;-86
2023/08/28 05:07:55;;;;;;;5.70;2.30;;;11.60;99.90;;;;;;5078255;28;20050;-86
2023/08/28 05:10:22;;;;;;;7.47;2.75;;;11.70;99.90;;;;;;5077646;28;20059;-86
2023/08/28 05:12:48;;;;;;;4.07;2.10;;;11.70;99.90;;;;;;5061625;28;20484;-86
2023/08/28 05:15:15;;;;;;;5.38;2.38;;;11.70;99.90;;;;;;5061011;28;20463;-86
2023/08/28 05:17:42;;;;;;;6.50;2.15;;;11.80;99.90;;;;;;5061338;28;20036;-86
2023/08/28 05:20:09;;;;;;;8.07;2.38;;;11.80;99.90;;;;;;5094548;28;20040;-85
2023/08/28 05:22:36;;;;;;;5.15;2.58;;;11.80;99.90;;;;;;5077881;28;20047;-86
2023/08/28 05:25:03;;;;;;;7.38;2.80;;;11.80;99.90;;;;;;5061401;28;20050;-86
2023/08/28 05:27:29;;;;;;;3.80;2.30;;;11.80;99.90;;;;;;5061298;28;20039;-86
2023/08/28 05:29:56;;;;;;;6.75;3.00;;;11.80;99.90;;;;;;5061284;28;20036;-86
2023/08/28 05:32:23;;;;;;;5.22;2.80;;;11.90;99.90;;;;;;5077811;28;20129;-86
2023/08/28 05:34:50;;;;;;;5.97;2.83;;;11.90;99.90;;;;;;5077682;28;20063;-86
2023/08/28 05:37:16;;;;;;;5.88;2.65;;;12.00;99.90;;;;;;5060943;28;20400;-85
2023/08/28 05:39:43;;;;;;;7.78;3.08;;;12.00;99.90;;;;;;5060971;28;20558;-86
2023/08/28 05:42:10;;;;;;;6.57;2.92;;;12.00;99.90;;;;;;5060879;28;20036;-86
2023/08/28 05:44:36;;;;;;;5.70;2.70;;;12.00;99.90;;;;;;5076959;28;20032;-86
2023/08/28 05:47:03;;;;;;;8.00;3.63;;;12.10;99.90;;;;;;5077218;28;20048;-86
2023/08/28 05:49:30;;;;;;;9.82;2.88;;;12.10;99.90;;;;;;5060462;28;20122;-86
2023/08/28 05:51:57;;;;;;;6.03;2.63;;;12.20;99.90;;;;;;5061171;28;20036;-86
2023/08/28 05:54:24;;;;;;;5.50;2.60;;;12.20;99.90;;;;;;5093803;28;20044;-86
2023/08/28 05:56:50;;;;;;;7.80;2.70;;;12.20;99.90;;;;;;5093616;28;20044;-86
2023/08/28 05:59:17;;;;;;;4.45;2.58;;;12.30;99.90;;;;;;5077224;28;20523;-86
2023/08/28 06:01:44;;;;;;;8.18;2.55;;;12.30;99.90;;;;;;5061331;28;20047;-86
2023/08/28 06:04:11;;;;;;;6.95;2.90;;;12.40;99.90;;;;;;5077094;28;20359;-86
2023/08/28 06:06:38;;;;;;;5.47;2.60;;;12.40;99.90;;;;;;5073402;28;20066;-86
2023/08/28 06:09:06;;;;;;;8.18;2.72;;;12.40;99.90;;;;;;5106659;28;20131;-86
2023/08/28 06:11:32;;;;;;;5.80;2.85;;;12.50;99.90;;;;;;5073495;28;20484;-86
2023/08/28 06:13:59;;;;;;;7.00;3.08;;;12.50;99.90;;;;;;5089875;28;20051;-85
2023/08/28 06:16:26;;;;;;;5.25;2.97;;;12.60;99.90;;;;;;5089486;28;20175;-85
2023/08/28 06:18:53;;;;;;;6.93;3.00;;;12.60;99.90;;;;;;5089863;28;20486;-85
2023/08/28 06:21:20;;;;;;;5.40;2.92;;;12.70;99.90;;;;;;5072704;28;20040;-85
2023/08/28 06:23:46;;;;;;;5.05;3.10;;;12.80;99.90;;;;;;5056787;28;20044;-85
2023/08/28 06:26:13;;;;;;;7.05;2.95;;;12.80;99.90;;;;;;5073179;28;20409;-86
2023/08/28 06:28:40;;;;;;;6.65;2.65;;;12.80;99.90;;;;;;5072827;28;20048;-85
2023/08/28 06:31:07;;;;;;;5.03;2.67;;;12.90;99.90;;;;;;5073040;28;20508;-86
2023/08/28 06:33:34;;;;;;;5.45;2.78;;;12.90;99.90;;;;;;5056499;28;20481;-86
2023/08/28 06:36:02;;;;;;;4.07;2.53;;;13.00;99.90;;;;;;5092256;28;20493;-86
2023/08/28 06:38:28;;;;;;;7.72;2.70;;;13.00;99.90;;;;;;5077057;28;20369;-85
2023/08/28 06:40:55;;;;;;;6.53;2.90;;;13.10;99.90;;;;;;5060592;28;20105;-86
2023/08/28 06:43:22;;;;;;;4.80;2.67;;;13.20;99.90;;;;;;5060999;28;20042;-86
2023/08/28 06:45:49;;;;;;;4.65;3.03;;;13.20;99.90;;;;;;5081360;28;20040;-85
2023/08/28 06:48:15;;;;;;;6.35;2.72;;;13.30;99.90;;;;;;5060547;28;20055;-86
2023/08/28 06:50:42;;;;;;;10.38;3.30;;;13.40;99.90;;;;;;5060061;28;20094;-86
2023/08/28 06:53:09;;;;;;;6.13;3.20;;;13.50;99.90;;;;;;5093470;28;20123;-86
2023/08/28 06:55:36;;;;;;;6.72;3.30;;;13.60;99.90;;;;;;5076767;28;20475;-85
2023/08/28 06:58:03;;;;;;;7.25;2.80;;;13.60;99.90;;;;;;5093401;28;20131;-86
2023/08/28 07:00:30;;;;;;;7.15;3.10;;;13.80;99.90;;;;;;5077070;28;20619;-86
2023/08/28 07:02:57;;;;;;;8.35;2.90;;;13.80;99.90;;;;;;5060353;28;20043;-86
2023/08/28 07:05:24;;;;;;;5.05;2.65;;;13.90;99.90;;;;;;5096068;28;20047;-86
2023/08/28 07:07:51;;;;;;;10.52;3.03;;;14.00;99.90;;;;;;5063937;28;20044;-86
2023/08/28 07:10:18;;;;;;;5.85;2.60;;;14.10;99.90;;;;;;5079917;28;20087;-86
2023/08/28 07:12:45;;;;;;;7.57;2.67;;;14.20;99.90;;;;;;5063826;28;20051;-85
2023/08/28 07:15:17;;;;;;;8.82;2.70;;;14.20;99.90;;;;;;5097196;28;20039;-85
2023/08/28 07:17:44;;;;;;;5.63;2.60;;;14.40;99.90;;;;;;5096256;28;20075;-85
2023/08/28 07:20:11;;;;;;;7.28;2.75;;;14.50;99.90;;;;;;5112895;28;20128;-84
2023/08/28 07:22:38;;;;;;;10.35;2.67;;;14.50;99.90;;;;;;5063011;28;20077;-84
2023/08/28 07:25:05;;;;;;;6.40;2.50;;;14.60;99.90;;;;;;5062913;28;20047;-85
2023/08/28 07:27:32;;;;;;;3.92;2.20;;;14.70;99.90;;;;;;5062907;28;20036;-85
2023/08/28 07:29:58;;;;;;;4.55;1.98;;;14.80;99.90;;;;;;5063106;28;20028;-85
2023/08/28 07:32:25;;;;;;;5.57;2.03;;;14.80;99.90;;;;;;5079840;28;20059;-85
2023/08/28 07:34:52;;;;;;;4.47;2.20;;;14.90;99.90;;;;;;5063312;28;20032;-86
2023/08/28 07:37:18;;;;;;;6.05;2.55;;;15.00;99.90;;;;;;5079331;28;20129;-85
2023/08/28 07:39:48;;;;;;;6.38;3.00;;;15.10;99.90;;;;;;5062603;28;20419;-86
2023/08/28 07:42:15;;;;;;;3.92;2.13;;;15.20;99.90;;;;;;5062924;28;20405;-85
2023/08/28 07:44:42;;;;;;;5.40;2.33;;;15.20;99.90;;;;;;5078889;28;20087;-86
2023/08/28 07:47:09;;;;;;;5.22;2.75;;;15.30;99.90;;;;;;5062759;28;20047;-85
2023/08/28 07:49:36;;;;;;;3.83;2.03;;;15.40;99.90;;;;;;5062683;28;20083;-86
2023/08/28 07:52:02;;;;;;;6.82;2.20;;;15.40;99.90;;;;;;5094302;28;20043;-87
2023/08/28 07:54:29;;;;;;;6.15;2.40;;;15.50;99.90;;;;;;5062776;28;20047;-87
2023/08/28 07:56:56;;;;;;;3.55;1.98;;;15.70;99.90;;;;;;5094956;28;20615;-86
2023/08/28 07:59:23;;;;;;;4.75;1.80;;;15.70;99.90;;;;;;5062605;28;20044;-86
2023/08/28 08:01:49;;;;;;;7.70;2.20;;;15.80;99.90;;;;;;5062550;28;20510;-86
2023/08/28 08:04:16;;;;;;;4.60;1.80;;;15.90;99.90;;;;;;5079720;28;20036;-87
2023/08/28 08:06:43;;;;;;;6.38;2.03;;;15.90;99.90;;;;;;5062513;28;20135;-87
2023/08/28 08:09:09;;;;;;;5.30;1.65;;;16.00;99.90;;;;;;5062915;28;20039;-87
2023/08/28 08:11:36;;;;;;;7.53;1.85;;;16.10;99.90;;;;;;5079808;28;20044;-88
2023/08/28 08:14:03;;;;;;;6.75;1.60;;;16.20;99.90;;;;;;5079295;28;20048;-80
2023/08/28 08:16:30;;;;;;;7.80;1.73;;;16.30;99.90;;;;;;5078331;28;20054;-86
2023/08/28 08:18:57;;;;;;;5.32;1.70;;;16.40;99.90;;;;;;5078663;28;20078;-87
2023/08/28 08:21:24;;;;;;;3.55;1.30;;;16.50;99.90;;;;;;5062361;28;20067;-87
2023/08/28 08:23:52;;;;;;;5.07;1.40;;;16.60;99.90;;;;;;5062582;28;20035;-87
2023/08/28 08:26:19;;;;;;;3.60;1.00;;;16.70;99.90;;;;;;5062489;28;20044;-86
2023/08/28 08:28:45;;;;;;;3.22;1.10;;;16.80;99.90;;;;;;5095347;28;20040;-87
2023/08/28 08:31:12;;;;;;;3.60;1.20;;;16.90;99.90;;;;;;5061664;28;20067;-86
2023/08/28 08:33:39;;;;;;;3.08;1.13;;;17.00;99.90;;;;;;5061961;28;20047;-87
2023/08/28 08:36:06;;;;;;;5.47;1.50;;;17.10;99.90;;;;;;5062365;28;20040;-87
2023/08/28 08:38:33;;;;;;;4.03;1.10;;;17.20;99.90;;;;;;5095686;28;20043;-87
2023/08/28 08:40:59;;;;;;;4.88;1.10;;;17.20;99.90;;;;;;5062272;28;20401;-88
2023/08/28 08:43:26;;;;;;;3.80;1.20;;;17.30;99.90;;;;;;5078903;28;20078;-87
2023/08/28 08:46:04;;;;;;;3.55;1.10;;;17.30;99.90;;;;;;5094278;28;20036;-87
2023/08/28 08:48:36;;;;;;;3.45;1.02;;;17.40;99.90;;;;;;5094582;28;20043;-87
2023/08/28 08:51:05;;;;;;;3.03;1.00;;;17.50;99.90;;;;;;5062487;28;20036;-87
2023/08/28 08:53:47;;;;;;;5.00;1.10;;;17.60;99.90;;;;;;5094772;28;20043;-86
2023/08/28 08:56:17;;;;;;;4.35;1.30;;;17.80;99.90;;;;;;5094445;28;20128;-87
2023/08/28 08:58:44;;;;;;;2.15;1.02;;;17.90;99.90;;;;;;5076980;28;20032;-87
2023/08/28 09:01:11;;;;;;;8.02;0.98;;;18.00;99.90;;;;;;5077424;28;20097;-87
2023/08/28 09:03:39;;;;;;;3.03;0.70;;;18.10;99.90;;;;;;5077881;28;20073;-86
2023/08/28 09:06:07;;;;;;;5.88;1.00;;;18.20;99.90;;;;;;5077415;28;20048;-87
2023/08/28 09:08:42;;;;;;;2.78;1.10;;;18.20;99.90;;;;;;5077745;28;20048;-86
2023/08/28 09:11:09;;;;;;;5.10;1.00;;;18.40;99.90;;;;;;5110814;28;20071;-87
2023/08/28 09:13:37;;;;;;;3.20;1.00;;;18.60;99.90;;;;;;5061215;28;20128;-86
2023/08/28 09:16:04;;;;;;;3.17;0.90;;;18.70;99.90;;;;;;5078056;28;20064;-87
2023/08/28 09:18:31;;;;;;;1.88;0.90;;;18.80;99.90;;;;;;5094356;28;20395;-87
2023/08/28 09:21:07;;;;;;;3.22;0.98;;;19.00;99.90;;;;;;5076838;28;20081;-86
2023/08/28 09:23:34;;;;;;;3.08;1.20;;;19.40;99.90;;;;;;5094104;28;20518;-87
2023/08/28 09:26:03;;;;;;;5.72;1.08;;;19.50;99.90;;;;;;5077170;28;20502;-87
2023/08/28 09:28:30;;;;;;;2.28;0.90;;;19.40;99.90;;;;;;5110585;28;20093;-88
2023/08/28 09:30:57;;;;;;;3.10;0.95;;;19.50;99.90;;;;;;5061658;28;20493;-88
2023/08/28 09:33:24;;;;;;;2.75;0.95;;;19.30;99.90;;;;;;5094919;28;20040;-86
2023/08/28 09:35:51;;;;;;;3.90;1.20;;;19.30;99.90;;;;;;5094086;28;20079;-87
2023/08/28 09:38:18;;;;;;;1.48;0.82;;;19.00;99.90;;;;;;5061060;28;20071;-87
2023/08/28 09:40:45;;;;;;;3.47;1.02;;;18.90;99.90;;;;;;5060507;28;20385;-87
2023/08/28 09:43:14;;;;;;;2.40;0.80;;;18.90;99.90;;;;;;5077461;28;20050;-87
2023/08/28 09:45:42;;;;;;;2.38;1.00;;;19.00;99.90;;;;;;5076792;28;20510;-87
2023/08/28 09:48:10;;;;;;;4.43;0.95;;;19.10;99.90;;;;;;5093268;28;20074;-87
2023/08/28 09:50:41;;;;;;;3.72;0.85;;;19.00;99.90;;;;;;5077156;28;20442;-86
2023/08/28 09:53:10;;;;;;;2.80;0.98;;;18.80;99.90;;;;;;5093692;28;20077;-86
2023/08/28 09:55:50;;;;;;;4.00;0.90;;;18.60;99.90;;;;;;5076873;28;20040;-86
2023/08/28 09:59:22;;;;;;;4.40;0.93;;;19.20;99.90;;;;;;5093538;28;20028;-86
2023/08/28 10:01:50;;;;;;;3.17;0.85;;;19.30;99.90;;;;;;5092335;28;20028;-85
2023/08/28 10:04:19;;;;;;;3.60;0.80;;;19.40;99.90;;;;;;5060201;28;20043;-84
2023/08/28 10:06:53;;;;;;;3.03;0.77;;;19.40;99.90;;;;;;5092690;28;20052;-85
2023/08/28 10:09:22;;;;;;;4.60;1.02;;;19.30;99.90;;;;;;5076189;28;20846;-84
2023/08/28 10:11:53;;;;;;;2.25;0.77;;;19.10;99.90;;;;;;5092368;28;20446;-85
2023/08/28 10:14:22;;;;;;;2.60;0.70;;;19.20;99.90;;;;;;5092701;28;20108;-85
2023/08/28 10:17:04;;;;;;;2.15;0.80;;;19.30;99.90;;;;;;5092168;28;20514;-84
2023/08/28 10:19:42;;;;;;;2.83;0.70;;;19.40;99.90;;;;;;5092854;28;20043;-85
2023/08/28 10:22:09;;;;;;;1.45;0.68;;;19.40;99.90;;;;;;5092199;28;20040;-85
2023/08/28 10:24:40;;;;;;;2.15;0.65;;;19.40;99.90;;;;;;5092905;28;20089;-85
2023/08/28 10:27:08;;;;;;;1.42;0.70;;;19.20;99.90;;;;;;5092828;28;20130;-87
2023/08/28 10:29:37;;;;;;;3.40;0.80;;;19.20;99.90;;;;;;5076229;28;20165;-86
2023/08/28 10:32:09;;;;;;;3.72;0.85;;;19.10;99.90;;;;;;5079712;28;20492;-87
2023/08/28 10:34:40;;;;;;;2.72;0.90;;;19.10;99.90;;;;;;5056516;28;20086;-85
2023/08/28 10:37:11;;;;;;;2.80;1.00;;;19.00;99.90;;;;;;5048334;28;20044;-86
2023/08/28 10:39:42;;;;;;;2.47;0.95;;;18.90;99.90;;;;;;5056025;28;20086;-86
2023/08/28 10:42:12;;;;;;;2.78;1.00;;;18.90;99.90;;;;;;5072362;28;20056;-86
2023/08/28 10:44:40;;;;;;;3.78;1.00;;;18.80;99.90;;;;;;5072565;28;20049;-86
2023/08/28 10:47:24;;;;;;;3.50;1.05;;;18.80;99.90;;;;;;5055635;28;20045;-86
2023/08/28 10:49:56;;;;;;;2.50;0.80;;;18.80;99.90;;;;;;5072568;28;20076;-86
2023/08/28 10:52:23;;;;;;;3.30;1.00;;;18.90;99.90;;;;;;5072322;28;20302;-86
2023/08/28 10:54:50;;;;;;;8.35;0.95;;;18.90;99.90;;;;;;5056134;28;20421;-86
2023/08/28 10:57:28;;;;;;;5.25;1.00;;;19.00;99.90;;;;;;5065309;28;20106;-86
2023/08/28 10:59:59;;;;;;;2.53;0.70;;;19.00;99.90;;;;;;5092288;28;20090;-86
2023/08/28 11:03:08;;;;;;;1.70;0.73;;;18.90;99.90;;;;;;5092214;28;20105;-86
2023/08/28 11:05:37;;;;;;;2.22;0.65;;;18.90;99.90;;;;;;5092300;28;20032;-86
2023/08/28 11:08:11;;;;;;;2.95;0.98;;;18.80;99.90;;;;;;5076179;28;20043;-85
2023/08/28 11:10:41;;;;;;;5.23;0.90;;;18.80;99.90;;;;;;5092337;28;20488;-86
2023/08/28 11:13:11;;;;;;;3.53;1.08;;;18.80;99.90;;;;;;5092290;28;20043;-85
2023/08/28 11:15:42;;;;;;;1.88;0.60;;;18.70;99.90;;;;;;5076015;28;20047;-86
2023/08/28 11:18:17;;;;;;;1.70;0.80;;;18.50;99.90;;;;;;5075663;28;20072;-86
2023/08/28 11:20:54;;;;;;;3.65;0.63;;;18.50;99.90;;;;;;5076603;28;20142;-86
2023/08/28 11:23:38;;;;;;;1.42;0.80;;;18.40;99.90;;;;;;5096295;28;20044;-86
2023/08/28 11:26:17;;;;;;;2.72;0.80;;;18.40;99.90;;;;;;5095835;28;20055;-86
2023/08/28 11:28:46;;;;;;;1.50;0.70;;;18.30;99.90;;;;;;5095998;28;20048;-86
2023/08/28 11:31:14;;;;;;;2.80;0.82;;;18.30;99.90;;;;;;5095338;28;20074;-85
2023/08/28 11:33:45;;;;;;;2.95;0.80;;;18.10;99.90;;;;;;5095867;28;20036;-85
2023/08/28 11:36:19;;;;;;;3.60;0.98;;;18.20;99.90;;;;;;5084076;28;20043;-86
2023/08/28 11:38:49;;;;;;;2.50;0.85;;;18.10;99.90;;;;;;5095599;28;20089;-86
2023/08/28 11:41:16;;;;;;;2.00;0.80;;;18.10;99.90;;;;;;5078975;28;20036;-86
2023/08/28 11:43:44;;;;;;;2.85;1.05;;;18.10;99.90;;;;;;5084488;28;20029;-86
2023/08/28 11:46:12;;;;;;;1.70;0.80;;;18.10;99.90;;;;;;5059050;28;20483;-86
2023/08/28 11:48:42;;;;;;;1.65;0.80;;;18.10;99.90;;;;;;5062636;28;20040;-85
2023/08/28 11:51:10;;;;;;;3.60;1.00;;;18.20;99.90;;;;;;5095562;28;20079;-86
2023/08/28 11:53:42;;;;;;;3.63;1.00;;;18.20;99.90;;;;;;5112662;28;20032;-86
2023/08/28 11:56:13;;;;;;;3.67;0.82;;;18.20;99.90;;;;;;5095203;28;20044;-86
2023/08/28 11:58:41;;;;;;;2.65;1.00;;;18.30;99.90;;;;;;5095742;28;20480;-86
2023/08/28 12:01:08;;;;;;;3.22;0.80;;;18.40;99.90;;;;;;5112132;28;20059;-85
2023/08/28 12:03:39;;;;;;;2.90;1.10;;;18.40;99.90;;;;;;5062164;28;20122;-86
2023/08/28 12:06:08;;;;;;;13.68;1.75;;;18.50;99.90;;;;;;5091690;28;20516;-86
2023/08/28 12:08:37;;;;;;;2.95;1.00;;;18.50;99.90;;;;;;5075281;28;20044;-86
2023/08/28 12:11:09;;;;;;;1.70;0.80;;;18.60;99.90;;;;;;5075208;28;20036;-86
2023/08/28 12:13:37;;;;;;;1.40;0.73;;;18.60;99.90;;;;;;5071634;28;20076;-86
2023/08/28 12:16:20;;;;;;;2.28;0.75;;;18.60;99.90;;;;;;5071275;28;20493;-86
2023/08/28 12:18:49;;;;;;;1.50;0.60;;;18.70;99.90;;;;;;5056804;28;20090;-86
2023/08/28 12:21:17;;;;;;;1.23;0.70;;;18.60;99.90;;;;;;5084974;28;20377;-86
2023/08/28 12:23:48;;;;;;;2.95;0.80;;;18.80;99.90;;;;;;5075467;28;20036;-86
2023/08/28 12:26:20;;;;;;;3.15;0.98;;;18.70;99.90;;;;;;5075322;28;20047;-85
2023/08/28 12:28:47;;;;;;;2.08;0.77;;;18.70;99.90;;;;;;5091663;28;20040;-86
2023/08/28 12:31:15;;;;;;;2.92;0.82;;;18.70;99.90;;;;;;5074508;28;20040;-86
2023/08/28 12:33:44;;;;;;;2.35;0.75;;;18.70;99.90;;;;;;5088682;28;20492;-84
2023/08/28 12:36:11;;;;;;;7.75;1.40;;;18.80;99.90;;;;;;5090564;28;20505;-84
2023/08/28 12:38:49;;;;;;;2.42;0.88;;;18.90;99.90;;;;;;5057605;28;20040;-84
2023/08/28 12:41:17;;;;;;;1.70;0.75;;;19.10;99.90;;;;;;5073708;28;20044;-84
2023/08/28 12:43:48;;;;;;;1.73;0.70;;;19.20;99.90;;;;;;5090758;28;20394;-86
2023/08/28 12:46:15;;;;;;;1.67;0.73;;;19.30;99.90;;;;;;5090930;28;20115;-86
2023/08/28 12:48:43;;;;;;;1.27;0.65;;;19.50;99.90;;;;;;5074097;28;20041;-86
2023/08/28 12:51:10;;;;;;;1.65;0.60;;;19.60;99.90;;;;;;5074295;28;20080;-86
2023/08/28 12:53:37;;;;;;;2.20;0.60;;;19.80;99.90;;;;;;5090566;28;20087;-84
2023/08/28 12:56:03;;;;;;;1.55;0.73;;;19.90;99.90;;;;;;5091379;28;20496;-84